createdAt,value
2018-04-09T00:01:55.948Z,68.50
2018-04-09T00:04:23.933Z,68.50
2018-04-09T00:06:51.936Z,68.50
2018-04-09T00:09:19.946Z,68.10
2018-04-09T00:11:47.946Z,67.70
2018-04-09T00:14:16.009Z,67.80
2018-04-09T00:16:47.153Z,67.50
2018-04-09T00:19:15.972Z,66.80
2018-04-09T00:21:44.769Z,66.40
2018-04-09T00:24:13.588Z,66.30
2018-04-09T00:26:41.648Z,66.20
2018-04-09T00:29:10.462Z,68.80
2018-04-09T00:31:39.282Z,68.10
2018-04-09T00:34:07.336Z,67.90
2018-04-09T00:36:36.156Z,68.50
2018-04-09T00:39:04.194Z,68.40
2018-04-09T00:41:32.236Z,68.90
2018-04-09T00:44:00.273Z,69.70
2018-04-09T00:46:28.341Z,70.00
2018-04-09T00:48:56.381Z,69.80
2018-04-09T00:51:24.444Z,69.30
2018-04-09T00:53:59.994Z,68.90
2018-04-09T00:56:28.050Z,68.90
2018-04-09T00:58:56.100Z,69.10
2018-04-09T01:01:24.136Z,69.60
2018-04-09T01:03:52.192Z,69.60
2018-04-09T01:06:20.220Z,69.50
2018-04-09T01:08:49.033Z,70.00
2018-04-09T01:11:17.081Z,69.90
2018-04-09T01:13:45.120Z,69.60
2018-04-09T01:16:13.173Z,69.60
2018-04-09T01:18:41.968Z,69.50
2018-04-09T01:21:10.784Z,69.30
2018-04-09T01:23:39.614Z,69.10
2018-04-09T01:26:07.652Z,69.00
2018-04-09T01:28:35.699Z,69.30
2018-04-09T01:31:03.742Z,70.00
2018-04-09T01:33:32.544Z,69.80
2018-04-09T01:36:00.824Z,69.80
2018-04-09T01:38:29.638Z,69.80
2018-04-09T01:40:57.673Z,69.70
2018-04-09T01:43:25.729Z,69.50
2018-04-09T01:45:53.792Z,70.00
2018-04-09T01:48:21.892Z,71.20
2018-04-09T01:50:49.981Z,71.20
2018-04-09T01:53:18.004Z,72.50
2018-04-09T01:55:46.061Z,74.00
2018-04-09T01:58:14.102Z,73.80
2018-04-09T02:00:42.905Z,74.00
2018-04-09T02:03:11.712Z,73.50
2018-04-09T02:05:40.526Z,73.60
2018-04-09T02:08:08.580Z,73.50
2018-04-09T02:10:37.381Z,75.20
2018-04-09T02:13:05.432Z,75.00
2018-04-09T02:15:33.484Z,74.70
2018-04-09T02:18:01.537Z,75.00
2018-04-09T02:20:30.325Z,77.20
2018-04-09T02:22:59.151Z,77.30
2018-04-09T02:25:27.204Z,77.10
2018-04-09T02:27:55.244Z,77.00
2018-04-09T02:30:23.298Z,78.20
2018-04-09T02:32:51.350Z,79.30
2018-04-09T02:35:19.437Z,79.40
2018-04-09T02:37:47.707Z,78.20
2018-04-09T02:40:15.755Z,78.60
2018-04-09T02:42:43.792Z,79.30
2018-04-09T02:45:11.844Z,78.30
2018-04-09T02:47:39.878Z,78.50
2018-04-09T02:50:07.932Z,79.10
2018-04-09T02:52:35.978Z,79.20
2018-04-09T02:55:04.010Z,78.70
2018-04-09T02:57:32.073Z,79.80
2018-04-09T03:00:00.116Z,79.20
2018-04-09T03:02:28.162Z,79.20
2018-04-09T03:04:56.194Z,78.10
2018-04-09T03:07:24.272Z,77.90
2018-04-09T03:09:52.321Z,77.90
2018-04-09T03:12:20.352Z,77.60
2018-04-09T03:14:48.419Z,77.30
2018-04-09T03:17:16.445Z,77.40
2018-04-09T03:19:44.500Z,77.40
2018-04-09T03:22:12.533Z,77.90
2018-04-09T03:24:40.622Z,77.70
2018-04-09T03:27:08.668Z,77.70
2018-04-09T03:29:36.706Z,78.20
2018-04-09T03:32:05.521Z,79.00
2018-04-09T03:34:33.556Z,78.80
2018-04-09T03:37:01.612Z,79.00
2018-04-09T03:39:29.643Z,78.80
2018-04-09T03:41:58.461Z,78.90
2018-04-09T03:44:27.273Z,79.30
2018-04-09T03:46:55.330Z,79.30
2018-04-09T03:49:23.384Z,80.40
2018-04-09T03:51:51.437Z,81.20
2018-04-09T03:54:19.508Z,82.40
2018-04-09T03:56:47.560Z,82.70
2018-04-09T03:59:15.606Z,83.20
2018-04-09T04:01:43.641Z,83.70
2018-04-09T04:04:11.685Z,82.80
2018-04-09T04:06:39.796Z,82.80
2018-04-09T04:09:07.830Z,82.30
2018-04-09T04:11:35.904Z,83.30
2018-04-09T04:14:03.945Z,83.60
2018-04-09T04:16:43.761Z,83.40
2018-04-09T04:19:23.605Z,84.00
2018-04-09T04:21:51.664Z,84.50
2018-04-09T04:24:19.680Z,86.00
2018-04-09T04:26:47.742Z,84.30
2018-04-09T04:29:16.561Z,83.60
2018-04-09T04:31:44.672Z,83.50
2018-04-09T04:34:12.729Z,83.20
2018-04-09T04:36:40.756Z,83.40
2018-04-09T04:39:08.792Z,84.20
2018-04-09T04:41:36.824Z,84.40
2018-04-09T04:44:04.929Z,84.10
2018-04-09T04:46:32.956Z,84.20
2018-04-09T04:49:01.018Z,83.70
2018-04-09T04:51:29.827Z,83.30
2018-04-09T04:53:57.861Z,83.20
2018-04-09T04:56:25.921Z,83.60
2018-04-09T04:58:53.968Z,84.60
2018-04-09T05:01:22.793Z,84.00
2018-04-09T05:03:50.828Z,83.90
2018-04-09T05:06:19.684Z,84.10
2018-04-09T05:08:47.724Z,84.10
2018-04-09T05:11:15.757Z,83.80
2018-04-09T05:13:43.813Z,84.40
2018-04-09T05:16:12.626Z,83.00
2018-04-09T05:18:40.697Z,83.00
2018-04-09T05:21:09.485Z,83.70
2018-04-09T05:23:38.325Z,83.40
2018-04-09T05:26:06.377Z,83.30
2018-04-09T05:28:35.220Z,79.40
2018-04-09T05:31:03.322Z,79.40
2018-04-09T05:33:31.364Z,79.80
2018-04-09T05:35:59.424Z,80.80
2018-04-09T05:38:28.246Z,81.50
2018-04-09T05:40:57.037Z,81.40
2018-04-09T05:43:25.852Z,80.40
2018-04-09T05:45:53.883Z,80.40
2018-04-09T05:48:21.944Z,80.10
2018-04-09T05:50:50.787Z,83.60
2018-04-09T05:53:20.372Z,78.60
2018-04-09T05:55:48.440Z,78.70
2018-04-09T05:58:16.485Z,78.50
2018-04-09T06:00:45.304Z,75.70
2018-04-09T06:03:13.373Z,75.60
2018-04-09T06:05:42.165Z,76.00
2018-04-09T06:08:10.234Z,76.00
2018-04-09T06:10:38.378Z,76.30
2018-04-09T06:13:06.431Z,77.50
2018-04-09T06:15:35.246Z,73.90
2018-04-09T06:18:03.273Z,73.90
2018-04-09T06:20:32.145Z,72.30
2018-04-09T06:23:00.197Z,72.20
2018-04-09T06:25:29.048Z,72.20
2018-04-09T06:27:59.276Z,72.10
2018-04-09T06:30:27.329Z,72.10
2018-04-09T06:32:56.132Z,72.90
2018-04-09T06:35:24.963Z,73.10
2018-04-09T06:37:53.037Z,73.00
2018-04-09T06:40:21.087Z,74.40
2018-04-09T06:42:50.746Z,72.00
2018-04-09T06:45:18.780Z,72.00
2018-04-09T06:47:46.841Z,73.80
2018-04-09T06:50:14.896Z,72.60
2018-04-09T06:52:42.956Z,71.30
2018-04-09T06:55:12.257Z,71.20
2018-04-09T06:57:41.085Z,72.70
2018-04-09T07:00:09.918Z,72.80
2018-04-09T07:02:37.937Z,72.80
2018-04-09T07:05:05.990Z,72.20
2018-04-09T07:07:34.061Z,71.60
2018-04-09T07:10:02.085Z,72.00
2018-04-09T07:12:30.918Z,72.20
2018-04-09T07:14:58.969Z,72.20
2018-04-09T07:17:27.035Z,67.60
2018-04-09T07:19:55.093Z,66.50
2018-04-09T07:22:23.180Z,68.00
2018-04-09T07:24:51.335Z,66.90
2018-04-09T07:27:20.143Z,62.40
2018-04-09T07:29:48.969Z,63.60
2018-04-09T07:32:17.037Z,63.50
2018-04-09T07:34:45.229Z,66.00
2018-04-09T07:37:13.943Z,62.80
2018-04-09T07:39:41.976Z,63.40
2018-04-09T07:42:10.053Z,60.40
2018-04-09T07:44:38.112Z,61.00
2018-04-09T07:47:06.233Z,58.40
2018-04-09T07:49:35.084Z,57.60
2018-04-09T07:52:03.156Z,57.50
2018-04-09T07:54:31.252Z,57.00
2018-04-09T07:57:01.724Z,59.10
2018-04-09T07:59:29.775Z,58.50
2018-04-09T08:01:57.820Z,57.30
2018-04-09T08:04:26.652Z,57.20
2018-04-09T08:06:54.688Z,57.10
2018-04-09T08:09:22.947Z,55.60
2018-04-09T08:11:51.020Z,56.00
2018-04-09T08:14:19.068Z,56.10
2018-04-09T08:16:47.892Z,55.20
2018-04-09T08:19:15.938Z,55.20
2018-04-09T08:21:44.772Z,54.50
2018-04-09T08:24:12.843Z,54.40
2018-04-09T08:26:41.650Z,54.50
2018-04-09T08:29:09.714Z,54.40
2018-04-09T08:31:38.525Z,52.80
2018-04-09T08:34:07.361Z,50.60
2018-04-09T08:36:35.792Z,50.60
2018-04-09T08:39:03.913Z,51.80
2018-04-09T08:41:32.012Z,52.60
2018-04-09T08:44:00.055Z,51.10
2018-04-09T08:46:28.110Z,51.70
2018-04-09T08:48:56.169Z,49.50
2018-04-09T08:51:24.209Z,49.30
2018-04-09T08:53:53.041Z,48.60
2018-04-09T08:56:21.089Z,48.30
2018-04-09T08:58:49.912Z,50.40
2018-04-09T09:01:18.734Z,48.70
2018-04-09T09:03:46.773Z,48.70
2018-04-09T09:06:14.832Z,48.90
2018-04-09T09:08:42.913Z,48.00
2018-04-09T09:11:10.977Z,47.90
2018-04-09T09:13:39.045Z,48.40
2018-04-09T09:16:07.873Z,46.80
2018-04-09T09:18:35.924Z,46.70
2018-04-09T09:21:04.025Z,44.10
2018-04-09T09:23:32.110Z,43.70
2018-04-09T09:26:00.232Z,44.20
2018-04-09T09:28:28.272Z,43.80
2018-04-09T09:30:56.337Z,43.30
2018-04-09T09:33:25.149Z,43.30
2018-04-09T09:35:53.970Z,45.60
2018-04-09T09:38:22.017Z,45.60
2018-04-09T09:40:50.854Z,44.00
2018-04-09T09:43:18.902Z,44.00
2018-04-09T09:45:46.949Z,43.50
2018-04-09T09:48:14.992Z,44.20
2018-04-09T09:50:43.060Z,44.10
2018-04-09T09:53:11.879Z,43.80
2018-04-09T09:55:39.953Z,43.70
2018-04-09T09:58:08.776Z,45.50
2018-04-09T10:00:42.591Z,45.50
2018-04-09T10:03:10.664Z,44.00
2018-04-09T10:05:47.551Z,45.30
2018-04-09T10:08:16.393Z,42.60
2018-04-09T10:10:44.444Z,42.50
2018-04-09T10:13:12.542Z,42.60
2018-04-09T10:15:40.577Z,42.70
2018-04-09T10:18:08.642Z,42.70
2018-04-09T10:20:36.724Z,42.80
2018-04-09T10:23:04.777Z,42.80
2018-04-09T10:25:32.848Z,42.90
2018-04-09T10:28:00.894Z,42.90
2018-04-09T10:30:28.948Z,43.50
2018-04-09T10:32:56.985Z,42.00
2018-04-09T10:35:25.807Z,42.30
2018-04-09T10:37:53.865Z,42.20
2018-04-09T10:40:22.667Z,42.10
2018-04-09T10:42:51.494Z,42.00
2018-04-09T10:45:19.537Z,41.80
2018-04-09T10:47:47.611Z,40.90
2018-04-09T10:50:17.193Z,41.50
2018-04-09T10:52:45.225Z,41.30
2018-04-09T10:55:13.292Z,41.60
2018-04-09T10:57:41.328Z,41.90
2018-04-09T11:00:09.423Z,42.50
2018-04-09T11:02:38.228Z,40.30
2018-04-09T11:05:06.301Z,40.20
2018-04-09T11:07:34.370Z,40.20
2018-04-09T11:10:03.193Z,38.40
2018-04-09T11:12:31.253Z,38.20
2018-04-09T11:14:59.324Z,40.10
2018-04-09T11:17:28.136Z,40.40
2018-04-09T11:19:56.953Z,40.40
2018-04-09T11:22:25.004Z,40.30
2018-04-09T11:24:53.836Z,38.40
2018-04-09T11:27:21.890Z,38.30
2018-04-09T11:29:49.948Z,40.10
2018-04-09T11:32:18.008Z,39.80
2018-04-09T11:34:46.045Z,37.10
2018-04-09T11:37:14.128Z,36.60
2018-04-09T11:39:42.171Z,35.70
2018-04-09T11:42:10.239Z,35.40
2018-04-09T11:44:38.307Z,34.40
2018-04-09T11:47:06.442Z,33.50
2018-04-09T11:49:34.503Z,32.20
2018-04-09T11:52:02.546Z,33.10
2018-04-09T11:54:31.399Z,35.60
2018-04-09T11:56:59.459Z,35.30
2018-04-09T11:59:27.521Z,33.50
2018-04-09T12:01:56.359Z,32.30
2018-04-09T12:04:24.411Z,32.20
2018-04-09T12:06:53.234Z,29.50
2018-04-09T12:09:21.286Z,29.40
2018-04-09T12:11:50.114Z,29.30
2018-04-09T12:14:18.198Z,29.30
2018-04-09T12:16:46.242Z,29.90
2018-04-09T12:19:14.303Z,29.20
2018-04-09T12:21:42.347Z,28.80
2018-04-09T12:24:10.418Z,29.00
2018-04-09T12:26:39.263Z,29.30
2018-04-09T12:29:07.342Z,29.20
2018-04-09T12:31:35.415Z,27.90
2018-04-09T12:34:03.472Z,29.60
2018-04-09T12:36:32.507Z,30.10
2018-04-09T12:39:00.555Z,29.90
2018-04-09T12:41:29.393Z,29.00
2018-04-09T12:43:57.459Z,29.00
2018-04-09T12:46:27.708Z,28.00
2018-04-09T12:48:55.762Z,28.00
2018-04-09T12:51:24.575Z,25.90
2018-04-09T12:53:53.387Z,26.40
2018-04-09T12:56:23.131Z,26.40
2018-04-09T12:58:51.653Z,27.30
2018-04-09T13:01:19.721Z,26.30
2018-04-09T13:03:47.754Z,26.90
2018-04-09T13:06:16.583Z,27.30
2018-04-09T13:08:44.627Z,27.30
2018-04-09T13:11:13.446Z,25.40
2018-04-09T13:13:42.282Z,27.40
2018-04-09T13:16:10.341Z,27.40
2018-04-09T13:18:38.410Z,25.20
2018-04-09T13:21:07.227Z,22.10
2018-04-09T13:23:35.316Z,22.00
2018-04-09T13:26:03.367Z,23.00
2018-04-09T13:28:32.165Z,19.50
2018-04-09T13:31:00.226Z,19.60
2018-04-09T13:33:28.258Z,21.00
2018-04-09T13:35:56.347Z,18.70
2018-04-09T13:38:24.418Z,18.60
2018-04-09T13:40:53.230Z,17.80
2018-04-09T13:43:22.051Z,19.90
2018-04-09T13:45:50.087Z,19.80
2018-04-09T13:48:18.152Z,18.80
2018-04-09T13:50:46.219Z,17.10
2018-04-09T13:53:14.267Z,18.90
2018-04-09T13:55:42.342Z,17.90
2018-04-09T13:58:11.163Z,17.50
2018-04-09T14:00:39.290Z,17.30
2018-04-09T14:03:07.321Z,16.80
2018-04-09T14:05:35.377Z,18.30
2018-04-09T14:08:03.432Z,17.90
2018-04-09T14:10:31.496Z,16.00
2018-04-09T14:12:59.546Z,16.30
2018-04-09T14:15:28.358Z,19.50
2018-04-09T14:17:56.434Z,19.60
2018-04-09T14:20:25.252Z,20.40
2018-04-09T14:22:53.319Z,20.30
2018-04-09T14:25:22.152Z,16.80
2018-04-09T14:27:50.192Z,16.60
2018-04-09T14:30:18.263Z,17.30
2018-04-09T14:32:46.300Z,17.80
2018-04-09T14:35:14.367Z,16.00
2018-04-09T14:37:42.431Z,15.90
2018-04-09T14:40:10.493Z,17.50
2018-04-09T14:42:38.563Z,17.50
2018-04-09T14:45:06.619Z,17.00
2018-04-09T14:47:34.687Z,17.00
2018-04-09T14:50:02.760Z,17.30
2018-04-09T14:52:31.560Z,16.90
2018-04-09T14:55:00.388Z,16.30
2018-04-09T14:57:28.414Z,16.50
2018-04-09T14:59:56.479Z,16.20
2018-04-09T15:02:24.523Z,17.70
2018-04-09T15:04:53.353Z,18.70
2018-04-09T15:07:21.391Z,18.40
2018-04-09T15:09:49.442Z,16.70
2018-04-09T15:12:17.487Z,17.00
2018-04-09T15:14:45.546Z,16.00
2018-04-09T15:17:14.397Z,15.60
2018-04-09T15:19:42.432Z,14.90
2018-04-09T15:22:12.201Z,19.40
2018-04-09T15:24:40.280Z,18.80
2018-04-09T15:27:08.345Z,17.00
2018-04-09T15:29:37.171Z,16.90
2018-04-09T15:32:05.256Z,16.90
2018-04-09T15:34:33.306Z,17.80
2018-04-09T15:37:02.121Z,16.80
2018-04-09T15:39:30.191Z,16.80
2018-04-09T15:41:58.266Z,17.50
2018-04-09T15:44:27.095Z,18.00
2018-04-09T15:46:55.155Z,17.40
2018-04-09T15:49:23.970Z,19.00
2018-04-09T15:51:52.027Z,18.90
2018-04-09T15:54:20.091Z,19.00
2018-04-09T15:56:48.174Z,18.10
2018-04-09T15:59:16.204Z,18.90
2018-04-09T16:01:45.026Z,19.50
2018-04-09T16:04:13.062Z,19.40
2018-04-09T16:06:41.119Z,20.00
2018-04-09T16:09:09.166Z,19.70
2018-04-09T16:11:37.252Z,20.50
2018-04-09T16:14:05.310Z,20.30
2018-04-09T16:16:34.171Z,21.70
2018-04-09T16:19:02.223Z,21.60
2018-04-09T16:21:30.266Z,20.20
2018-04-09T16:23:58.363Z,19.60
2018-04-09T16:26:26.622Z,21.70
2018-04-09T16:28:55.104Z,20.50
2018-04-09T16:31:23.162Z,22.10
2018-04-09T16:33:51.206Z,21.80
2018-04-09T16:36:19.274Z,22.10
2018-04-09T16:38:47.312Z,21.50
2018-04-09T16:41:15.862Z,21.50
2018-04-09T16:43:43.914Z,21.20
2018-04-09T16:46:11.951Z,21.60
2018-04-09T16:48:40.798Z,22.70
2018-04-09T16:51:08.832Z,22.70
2018-04-09T16:53:36.907Z,21.90
2018-04-09T16:56:04.943Z,22.50
2018-04-09T16:58:33.038Z,22.40
2018-04-09T17:01:01.064Z,22.70
2018-04-09T17:03:29.111Z,23.30
2018-04-09T17:05:57.183Z,23.30
2018-04-09T17:08:25.331Z,22.30
2018-04-09T17:10:54.158Z,24.00
2018-04-09T17:13:22.190Z,23.80
2018-04-09T17:15:50.373Z,23.10
2018-04-09T17:18:19.341Z,24.60
2018-04-09T17:20:47.380Z,24.50
2018-04-09T17:23:16.241Z,25.20
2018-04-09T17:25:44.275Z,25.10
2018-04-09T17:28:13.151Z,25.30
2018-04-09T17:30:41.211Z,25.80
2018-04-09T17:33:09.250Z,26.10
2018-04-09T17:35:38.090Z,25.70
2018-04-09T17:38:06.143Z,25.70
2018-04-09T17:40:34.201Z,25.80
2018-04-09T17:43:02.311Z,26.80
2018-04-09T17:45:30.383Z,26.50
2018-04-09T17:47:58.547Z,27.40
2018-04-09T17:50:26.692Z,27.90
2018-04-09T17:52:54.784Z,27.80
2018-04-09T17:55:22.844Z,27.80
2018-04-09T17:57:50.883Z,28.10
2018-04-09T18:00:18.954Z,28.20
2018-04-09T18:02:47.035Z,28.40
2018-04-09T18:05:15.096Z,28.50
2018-04-09T18:07:43.135Z,28.70
2018-04-09T18:10:11.962Z,29.20
2018-04-09T18:12:40.033Z,29.10
2018-04-09T18:15:08.837Z,30.20
2018-04-09T18:17:37.667Z,30.00
2018-04-09T18:20:05.715Z,30.00
2018-04-09T18:22:34.574Z,30.60
2018-04-09T18:25:02.619Z,30.50
2018-04-09T18:27:30.692Z,31.10
2018-04-09T18:30:00.426Z,31.50
2018-04-09T18:32:28.478Z,31.40
2018-04-09T18:34:56.552Z,31.90
2018-04-09T18:37:24.575Z,32.20
2018-04-09T18:39:53.444Z,32.90
2018-04-09T18:42:21.487Z,32.80
2018-04-09T18:44:49.547Z,33.10
2018-04-09T18:47:17.602Z,33.20
2018-04-09T18:49:45.671Z,33.50
2018-04-09T18:52:13.830Z,34.30
2018-04-09T18:54:42.995Z,34.20
2018-04-09T18:57:11.798Z,34.20
2018-04-09T18:59:40.907Z,34.40
2018-04-09T19:02:09.756Z,34.20
2018-04-09T19:04:37.799Z,34.40
2018-04-09T19:07:05.858Z,35.10
2018-04-09T19:09:33.898Z,35.40
2018-04-09T19:12:01.952Z,35.80
2018-04-09T19:14:30.776Z,36.60
2018-04-09T19:16:58.811Z,36.50
2018-04-09T19:19:26.878Z,36.70
2018-04-09T19:21:54.907Z,37.50
2018-04-09T19:24:22.968Z,37.70
2018-04-09T19:26:51.819Z,38.40
2018-04-09T19:29:19.847Z,38.40
2018-04-09T19:31:48.674Z,38.70
2018-04-09T19:34:17.480Z,39.30
2018-04-09T19:36:52.134Z,39.20
2018-04-09T19:39:25.903Z,39.30
2018-04-09T19:42:11.750Z,39.40
2018-04-09T19:44:39.796Z,39.80
2018-04-09T19:47:07.862Z,39.70
2018-04-09T19:49:36.662Z,39.80
2018-04-09T19:52:04.747Z,39.80
2018-04-09T19:54:32.990Z,39.90
2018-04-09T19:57:01.053Z,40.10
2018-04-09T19:59:29.880Z,41.00
2018-04-09T20:01:57.940Z,40.90
2018-04-09T20:04:26.739Z,41.90
2018-04-09T20:06:55.569Z,41.80
2018-04-09T20:09:23.619Z,41.70
2018-04-09T20:11:51.651Z,41.70
2018-04-09T20:14:19.735Z,41.70
2018-04-09T20:16:47.767Z,41.60
2018-04-09T20:19:17.326Z,42.40
2018-04-09T20:21:45.392Z,42.30
2018-04-09T20:24:14.195Z,42.00
2018-04-09T20:26:42.338Z,42.00
2018-04-09T20:29:10.380Z,42.60
2018-04-09T20:31:38.439Z,42.80
2018-04-09T20:34:07.295Z,43.20
2018-04-09T20:36:35.337Z,43.10
2018-04-09T20:39:03.461Z,43.80
2018-04-09T20:41:31.530Z,44.10
2018-04-09T20:43:59.586Z,44.20
2018-04-09T20:46:29.344Z,45.30
2018-04-09T20:48:57.367Z,45.20
2018-04-09T20:51:25.427Z,45.90
2018-04-09T20:53:53.475Z,45.80
2018-04-09T20:56:21.546Z,46.60
2018-04-09T20:58:50.495Z,47.50
2018-04-09T21:01:18.522Z,47.50
2018-04-09T21:03:46.580Z,47.50
2018-04-09T21:06:14.629Z,47.30
2018-04-09T21:08:42.715Z,47.20
2018-04-09T21:11:10.779Z,47.00
2018-04-09T21:13:38.826Z,47.00
2018-04-09T21:16:06.926Z,47.90
2018-04-09T21:18:34.970Z,48.20
2018-04-09T21:21:03.035Z,48.50
2018-04-09T21:23:31.100Z,49.00
2018-04-09T21:25:59.907Z,49.00
2018-04-09T21:28:27.963Z,49.00
2018-04-09T21:30:55.999Z,50.50
2018-04-09T21:33:24.074Z,50.10
2018-04-09T21:35:52.115Z,49.80
2018-04-09T21:38:20.154Z,49.80
2018-04-09T21:40:48.211Z,49.70
2018-04-09T21:43:16.243Z,49.40
2018-04-09T21:45:44.350Z,49.90
2018-04-09T21:48:13.906Z,50.10
2018-04-09T21:50:41.946Z,50.00
2018-04-09T21:53:10.777Z,50.80
2018-04-09T21:55:39.582Z,51.50
2018-04-09T21:58:07.639Z,51.40
2018-04-09T22:00:35.730Z,52.00
2018-04-09T22:03:03.796Z,52.00
2018-04-09T22:05:31.869Z,52.80
2018-04-09T22:08:00.011Z,52.60
2018-04-09T22:10:28.076Z,52.60
2018-04-09T22:12:56.871Z,53.10
2018-04-09T22:15:25.699Z,53.80
2018-04-09T22:17:53.756Z,53.70
2018-04-09T22:20:21.791Z,53.60
2018-04-09T22:22:49.867Z,54.00
2018-04-09T22:25:19.020Z,54.20
2018-04-09T22:27:47.066Z,54.20
2018-04-09T22:30:15.140Z,54.30
2018-04-09T22:32:43.207Z,53.90
2018-04-09T22:35:11.266Z,54.30
2018-04-09T22:37:40.095Z,56.30
2018-04-09T22:40:08.142Z,56.20
2018-04-09T22:42:36.198Z,56.20
2018-04-09T22:45:04.228Z,56.20
2018-04-09T22:47:33.048Z,56.70
2018-04-09T22:50:01.079Z,56.00
2018-04-09T22:52:29.135Z,56.10
2018-04-09T22:54:57.186Z,56.00
2018-04-09T22:57:26.006Z,56.70
2018-04-09T22:59:54.050Z,56.60
2018-04-09T23:02:22.086Z,56.50
2018-04-09T23:04:50.146Z,56.70
2018-04-09T23:07:18.190Z,57.20
2018-04-09T23:09:46.223Z,57.60
2018-04-09T23:12:14.270Z,57.30
2018-04-09T23:14:42.297Z,57.50
2018-04-09T23:17:10.361Z,57.50
2018-04-09T23:19:39.162Z,57.80
2018-04-09T23:22:07.198Z,57.80
2018-04-09T23:24:35.250Z,58.30
2018-04-09T23:27:03.284Z,57.80
2018-04-09T23:29:31.343Z,58.30
2018-04-09T23:31:59.402Z,57.80
2018-04-09T23:34:28.354Z,57.80
2018-04-09T23:36:56.411Z,57.60
2018-04-09T23:39:24.446Z,57.80
2018-04-09T23:41:53.271Z,58.30
2018-04-09T23:44:21.319Z,58.20
2018-04-09T23:46:50.122Z,59.20
2018-04-09T23:49:18.942Z,59.40
2018-04-09T23:51:46.982Z,59.30
2018-04-09T23:54:15.023Z,59.80
2018-04-09T23:56:43.055Z,60.00
2018-04-09T23:59:11.109Z,60.20
